Time;durP1;ratioP1;P1;durP2;ratioP2;P2;SDS_P1;SDS_P2;PMS_P1;PMS_P2;Temp;Humidity;BMP_temperature;BMP_pressure;BME280_temperature;BME280_humidity;BME280_pressure;Samples;Min_cycle;Max_cycle;Signal;HPM_P1;HPM_P2
2022/06/17 00:00:57;;;;;;;2.78;1.35;;;14.50;99.40;;;;;;5121151;28;20613;-68
2022/06/17 00:03:25;;;;;;;2.63;1.52;;;14.50;99.70;;;;;;5097408;28;20031;-68
2022/06/17 00:05:53;;;;;;;2.70;1.60;;;14.50;99.80;;;;;;5115885;28;20031;-68
2022/06/17 00:08:28;;;;;;;3.00;1.27;;;14.50;99.70;;;;;;5111915;27;20131;-68
2022/06/17 00:10:54;;;;;;;4.63;1.50;;;14.60;99.70;;;;;;5104513;28;20071;-68
2022/06/17 00:13:20;;;;;;;3.85;1.27;;;14.60;99.60;;;;;;5097900;28;20082;-68
2022/06/17 00:15:47;;;;;;;2.78;1.55;;;14.50;99.70;;;;;;5116761;28;20035;-68
2022/06/17 00:18:15;;;;;;;2.65;1.83;;;14.50;99.80;;;;;;5086333;28;20044;-68
2022/06/17 00:20:42;;;;;;;3.42;1.70;;;14.50;99.80;;;;;;5101874;28;20459;-68
2022/06/17 00:23:17;;;;;;;2.65;1.85;;;14.50;99.80;;;;;;5114793;28;20031;-68
2022/06/17 00:25:45;;;;;;;2.72;1.42;;;14.50;99.90;;;;;;5111572;28;20066;-68
2022/06/17 00:28:19;;;;;;;3.28;1.75;;;14.50;99.90;;;;;;5121373;28;20126;-68
2022/06/17 00:30:46;;;;;;;3.70;1.73;;;14.50;99.90;;;;;;5091613;28;20122;-68
2022/06/17 00:33:14;;;;;;;3.13;1.67;;;14.50;99.70;;;;;;5106324;28;20552;-68
2022/06/17 00:35:46;;;;;;;1.98;1.35;;;14.50;99.90;;;;;;5116834;27;20069;-68
2022/06/17 00:38:15;;;;;;;2.80;1.50;;;14.50;99.90;;;;;;5123874;27;20041;-68
2022/06/17 00:40:42;;;;;;;3.15;1.67;;;14.40;99.90;;;;;;5121429;27;20041;-68
2022/06/17 00:43:22;;;;;;;2.58;1.85;;;14.30;99.90;;;;;;5084269;27;20062;-69
2022/06/17 00:46:02;;;;;;;2.33;1.38;;;14.30;99.90;;;;;;5130347;27;20110;-68
2022/06/17 00:48:34;;;;;;;3.58;1.60;;;14.30;99.90;;;;;;5112894;27;20043;-68
2022/06/17 00:51:11;;;;;;;2.97;1.98;;;14.30;99.90;;;;;;5117179;27;20038;-68
2022/06/17 00:53:59;;;;;;;3.13;1.90;;;14.30;99.90;;;;;;5115509;27;20066;-68
2022/06/17 00:56:30;;;;;;;2.67;1.80;;;14.30;99.90;;;;;;5124789;27;20044;-68
2022/06/17 00:59:04;;;;;;;3.28;1.95;;;14.30;99.90;;;;;;5122920;27;20054;-68
2022/06/17 01:01:50;;;;;;;2.22;1.58;;;14.20;99.90;;;;;;5098358;27;20596;-68
2022/06/17 01:04:26;;;;;;;;;;;14.30;99.90;;;;;;5106858;27;20043;-68
2022/06/17 01:06:58;;;;;;;2.70;1.58;;;14.20;99.90;;;;;;5103330;27;20395;-68
2022/06/17 01:12:17;;;;;;;2.95;1.58;;;14.20;99.90;;;;;;5109263;27;20107;-68
2022/06/17 01:14:43;;;;;;;4.35;2.10;;;14.10;99.90;;;;;;5122972;27;20039;-69
2022/06/17 01:17:11;;;;;;;3.78;1.92;;;14.10;99.90;;;;;;5102701;27;20484;-68
2022/06/17 01:19:41;;;;;;;2.78;2.03;;;14.10;99.90;;;;;;5103655;27;20483;-68
2022/06/17 01:22:27;;;;;;;3.13;1.80;;;14.10;99.90;;;;;;5111301;27;20493;-68
2022/06/17 01:25:10;;;;;;;3.28;1.80;;;14.10;99.90;;;;;;5095461;27;20047;-68
2022/06/17 01:27:40;;;;;;;2.90;1.85;;;14.10;99.90;;;;;;5115174;27;20445;-68
2022/06/17 01:30:09;;;;;;;2.42;1.70;;;14.10;99.90;;;;;;5114374;27;20066;-68
2022/06/17 01:32:58;;;;;;;2.95;1.75;;;14.10;99.90;;;;;;5107834;27;20040;-69
2022/06/17 01:35:41;;;;;;;3.55;1.73;;;14.10;99.90;;;;;;5098355;28;20055;-68
2022/06/17 01:38:08;;;;;;;3.80;1.90;;;14.10;99.90;;;;;;5102045;27;20048;-68
2022/06/17 01:40:33;;;;;;;2.90;1.67;;;14.10;99.90;;;;;;5096522;27;20046;-69
2022/06/17 01:43:02;;;;;;;3.40;2.03;;;14.10;99.90;;;;;;5102429;27;20413;-68
2022/06/17 01:45:31;;;;;;;2.90;1.80;;;14.00;99.90;;;;;;5112203;27;20040;-68
2022/06/17 01:47:57;;;;;;;3.10;1.83;;;14.00;99.90;;;;;;5102764;27;20517;-68
2022/06/17 01:50:27;;;;;;;3.55;1.67;;;14.00;99.90;;;;;;5113870;27;20125;-68
2022/06/17 01:53:03;;;;;;;3.80;1.85;;;13.90;99.90;;;;;;5101989;27;20266;-68
2022/06/17 01:55:36;;;;;;;4.45;2.15;;;14.00;99.90;;;;;;5116713;27;20537;-68
2022/06/17 01:58:08;;;;;;;3.80;1.92;;;13.90;99.90;;;;;;5113202;27;20502;-68
2022/06/17 02:00:34;;;;;;;3.42;2.10;;;13.90;99.90;;;;;;5111515;27;20062;-68
2022/06/17 02:03:06;;;;;;;3.58;1.80;;;13.80;99.90;;;;;;5120287;27;20047;-68
2022/06/17 02:05:34;;;;;;;2.83;1.70;;;13.80;99.90;;;;;;5117960;27;20043;-68
2022/06/17 02:08:02;;;;;;;2.92;1.88;;;13.80;99.90;;;;;;5119023;27;20046;-68
2022/06/17 02:10:35;;;;;;;3.53;2.13;;;13.80;99.90;;;;;;5109522;27;20031;-68
2022/06/17 02:13:04;;;;;;;3.00;1.75;;;13.80;99.90;;;;;;5114416;27;20043;-68
2022/06/17 02:15:30;;;;;;;3.78;1.40;;;13.80;99.90;;;;;;5103215;27;20477;-68
2022/06/17 02:17:57;;;;;;;3.67;2.28;;;13.80;99.90;;;;;;5104351;28;20457;-68
2022/06/17 02:20:23;;;;;;;3.88;2.40;;;13.80;99.90;;;;;;5095813;28;20043;-68
2022/06/17 02:22:50;;;;;;;2.80;1.90;;;13.80;99.90;;;;;;5108234;28;20040;-68
2022/06/17 02:25:26;;;;;;;3.20;1.98;;;13.80;99.90;;;;;;5082093;28;20036;-68
2022/06/17 02:27:55;;;;;;;3.22;1.75;;;13.80;99.90;;;;;;5100300;28;20115;-68
2022/06/17 02:30:22;;;;;;;3.80;1.95;;;13.70;99.90;;;;;;5122500;27;20511;-68
2022/06/17 02:32:49;;;;;;;5.07;2.17;;;13.80;99.90;;;;;;5119558;27;20050;-68
2022/06/17 02:35:23;;;;;;;2.67;1.67;;;13.70;99.90;;;;;;5107080;27;20500;-68
2022/06/17 02:37:51;;;;;;;2.75;1.83;;;13.70;99.90;;;;;;5089575;28;20526;-68
2022/06/17 02:40:33;;;;;;;4.15;2.15;;;13.70;99.90;;;;;;5101826;27;20040;-68
2022/06/17 02:43:03;;;;;;;5.53;2.60;;;13.60;99.90;;;;;;5093437;28;20051;-68
2022/06/17 02:45:33;;;;;;;4.35;2.10;;;13.70;99.90;;;;;;5117666;27;20088;-68
2022/06/17 02:47:59;;;;;;;2.95;1.92;;;13.60;99.90;;;;;;5115572;27;20032;-68
2022/06/17 02:50:28;;;;;;;5.20;2.50;;;13.60;99.90;;;;;;5115340;27;20053;-68
2022/06/17 02:52:56;;;;;;;3.17;2.05;;;13.60;99.90;;;;;;5105010;27;20040;-68
2022/06/17 02:55:43;;;;;;;4.25;2.03;;;13.70;99.90;;;;;;5104760;28;20074;-68
2022/06/17 02:58:16;;;;;;;4.78;1.75;;;13.70;99.90;;;;;;5108788;27;20454;-68
2022/06/17 03:00:43;;;;;;;4.90;3.05;;;13.70;99.90;;;;;;5110897;27;20165;-68
2022/06/17 03:03:13;;;;;;;4.85;2.90;;;13.60;99.90;;;;;;5116901;27;20088;-68
2022/06/17 03:05:42;;;;;;;3.90;2.38;;;13.60;99.90;;;;;;5113993;27;20076;-68
2022/06/17 03:08:26;;;;;;;4.18;2.47;;;13.60;99.90;;;;;;5114502;27;20090;-68
2022/06/17 03:10:55;;;;;;;4.07;2.13;;;13.60;99.90;;;;;;5120014;27;20035;-68
2022/06/17 03:13:31;;;;;;;4.13;2.28;;;13.60;99.90;;;;;;5088263;27;20032;-68
2022/06/17 03:16:00;;;;;;;3.70;2.13;;;13.60;99.90;;;;;;5121517;27;20134;-68
2022/06/17 03:18:27;;;;;;;4.10;2.22;;;13.50;99.90;;;;;;5102503;28;20099;-68
2022/06/17 03:20:54;;;;;;;5.22;3.10;;;13.50;99.90;;;;;;5114404;27;20063;-68
2022/06/17 03:23:28;;;;;;;3.22;2.08;;;13.50;99.90;;;;;;5101631;27;20059;-68
2022/06/17 03:26:03;;;;;;;6.03;2.63;;;13.50;99.90;;;;;;5085508;28;20067;-68
2022/06/17 03:28:37;;;;;;;3.63;2.53;;;13.60;99.90;;;;;;5084605;27;20081;-68
2022/06/17 03:31:32;;;;;;;4.30;2.65;;;13.60;99.90;;;;;;5103924;27;20655;-68
2022/06/17 03:34:03;;;;;;;4.25;2.17;;;13.60;99.90;;;;;;5065225;28;20505;-68
2022/06/17 03:36:46;;;;;;;4.78;2.95;;;13.60;99.90;;;;;;5087699;27;20036;-68
2022/06/17 03:39:24;;;;;;;4.88;2.80;;;13.70;99.90;;;;;;5089971;27;20058;-68
2022/06/17 03:42:13;;;;;;;3.55;1.88;;;13.70;99.90;;;;;;5088093;27;20055;-68
2022/06/17 03:44:53;;;;;;;6.15;2.58;;;13.70;99.90;;;;;;5079216;28;20056;-68
2022/06/17 03:47:40;;;;;;;4.00;2.50;;;13.70;99.90;;;;;;5104766;27;20485;-68
2022/06/17 03:50:08;;;;;;;3.28;2.08;;;13.70;99.90;;;;;;5074903;28;20048;-68
2022/06/17 03:52:56;;;;;;;3.60;2.30;;;13.70;99.90;;;;;;5085110;28;20028;-68
2022/06/17 03:55:22;;;;;;;4.07;2.55;;;13.70;99.90;;;;;;5091794;27;20511;-68
2022/06/17 03:57:54;;;;;;;3.85;2.10;;;13.80;99.90;;;;;;5088543;28;20044;-68
2022/06/17 04:00:43;;;;;;;3.50;2.03;;;13.80;99.90;;;;;;5093899;28;20106;-68
2022/06/17 04:03:15;;;;;;;4.22;2.28;;;13.80;99.90;;;;;;5087339;28;20520;-68
2022/06/17 04:05:43;;;;;;;5.05;2.45;;;13.80;99.90;;;;;;5092430;28;20040;-68
2022/06/17 04:08:12;;;;;;;3.65;2.20;;;13.80;99.90;;;;;;5090067;27;20092;-68
2022/06/17 04:10:38;;;;;;;4.18;2.25;;;13.90;99.90;;;;;;5093642;27;20703;-68
2022/06/17 04:13:05;;;;;;;3.58;2.35;;;14.00;99.90;;;;;;5100516;28;20032;-68
2022/06/17 04:15:50;;;;;;;3.70;1.90;;;14.00;99.90;;;;;;5089163;27;20043;-68
2022/06/17 04:18:16;;;;;;;3.40;1.98;;;14.00;99.90;;;;;;5092093;28;20054;-68
2022/06/17 04:20:47;;;;;;;3.72;2.28;;;14.10;99.90;;;;;;5078102;27;20516;-68
2022/06/17 04:23:16;;;;;;;5.15;2.38;;;14.10;99.90;;;;;;5090336;27;20556;-68
2022/06/17 04:25:54;;;;;;;4.20;2.00;;;14.20;99.90;;;;;;5094289;27;20059;-68
2022/06/17 04:28:25;;;;;;;3.42;2.00;;;14.30;99.90;;;;;;5090862;28;20040;-68
2022/06/17 04:31:06;;;;;;;3.50;1.83;;;14.30;99.90;;;;;;5106050;27;20039;-68
2022/06/17 04:33:47;;;;;;;3.33;1.80;;;14.40;99.90;;;;;;5074981;28;20043;-68
2022/06/17 04:36:18;;;;;;;2.55;1.63;;;14.40;99.90;;;;;;5082641;28;20031;-68
2022/06/17 04:39:01;;;;;;;4.30;2.22;;;14.50;99.90;;;;;;5090814;27;20121;-68
2022/06/17 04:41:35;;;;;;;3.03;1.98;;;14.50;99.90;;;;;;5092337;27;20551;-68
2022/06/17 04:44:04;;;;;;;4.13;2.05;;;14.60;99.90;;;;;;5089641;28;20067;-68
2022/06/17 04:46:39;;;;;;;3.28;1.83;;;14.70;99.90;;;;;;5094541;27;20051;-68
2022/06/17 04:49:10;;;;;;;3.40;1.70;;;14.70;99.90;;;;;;5087606;28;20038;-68
2022/06/17 04:51:36;;;;;;;3.30;2.20;;;14.70;99.90;;;;;;5086883;27;20563;-68
2022/06/17 04:54:04;;;;;;;3.13;1.77;;;14.70;99.90;;;;;;5104980;27;20043;-68
2022/06/17 04:56:45;;;;;;;4.68;1.85;;;14.80;99.90;;;;;;5094704;27;20544;-68
2022/06/17 04:59:36;;;;;;;3.17;1.40;;;14.90;99.90;;;;;;5070180;28;20040;-68
2022/06/17 05:02:06;;;;;;;3.45;1.60;;;14.90;99.90;;;;;;5109303;27;20032;-68
2022/06/17 05:04:32;;;;;;;4.05;2.65;;;14.90;99.90;;;;;;5092376;27;20045;-68
2022/06/17 05:06:58;;;;;;;9.65;2.10;;;14.90;99.90;;;;;;5101838;27;20090;-68
2022/06/17 05:09:28;;;;;;;2.78;1.75;;;14.90;99.90;;;;;;5087575;27;20051;-68
2022/06/17 05:12:03;;;;;;;4.85;2.75;;;14.90;99.90;;;;;;5092419;27;20113;-68
2022/06/17 05:15:03;;;;;;;4.18;2.20;;;15.00;99.90;;;;;;5109499;27;20035;-68
2022/06/17 05:17:28;;;;;;;4.25;2.30;;;15.10;99.90;;;;;;5092908;28;20056;-68
2022/06/17 05:19:54;;;;;;;3.28;2.30;;;15.00;99.90;;;;;;5106410;27;20043;-68
2022/06/17 05:22:50;;;;;;;5.28;2.22;;;15.10;99.90;;;;;;5088807;27;20046;-68
2022/06/17 05:25:32;;;;;;;3.63;2.42;;;15.10;99.90;;;;;;5106704;27;20645;-68
2022/06/17 05:27:57;;;;;;;3.60;2.40;;;15.20;99.90;;;;;;5106736;27;20109;-68
2022/06/17 05:30:23;;;;;;;4.68;2.28;;;15.30;99.90;;;;;;5093828;27;20032;-68
2022/06/17 05:32:54;;;;;;;4.55;2.75;;;15.30;99.90;;;;;;5106591;27;20053;-68
2022/06/17 05:35:21;;;;;;;5.50;2.83;;;15.30;99.90;;;;;;5089155;27;20040;-69
2022/06/17 05:37:48;;;;;;;3.95;2.60;;;15.40;99.90;;;;;;5105789;27;20460;-69
2022/06/17 05:40:14;;;;;;;4.80;2.60;;;15.40;99.90;;;;;;5103985;27;20478;-68
2022/06/17 05:42:41;;;;;;;3.97;2.45;;;15.50;99.90;;;;;;5103170;27;20118;-68
2022/06/17 05:45:08;;;;;;;5.35;2.67;;;15.40;99.90;;;;;;5096434;27;20629;-69
2022/06/17 05:47:34;;;;;;;3.80;2.15;;;15.40;99.90;;;;;;5101256;27;20039;-68
2022/06/17 05:49:59;;;;;;;3.63;2.47;;;15.50;99.90;;;;;;5090844;28;20514;-68
2022/06/17 05:52:25;;;;;;;4.10;2.22;;;15.50;99.90;;;;;;5086271;27;20044;-69
2022/06/17 05:54:58;;;;;;;4.60;2.60;;;15.50;99.90;;;;;;5093572;27;20032;-69
2022/06/17 05:57:24;;;;;;;5.07;2.17;;;15.50;99.90;;;;;;5107727;27;20066;-69
2022/06/17 05:59:49;;;;;;;7.32;2.40;;;15.60;99.90;;;;;;5067818;28;20562;-69
2022/06/17 06:02:15;;;;;;;4.68;2.70;;;15.60;99.90;;;;;;5093254;27;20063;-69
2022/06/17 06:04:40;;;;;;;3.53;2.05;;;15.60;99.90;;;;;;5088806;27;20040;-68
2022/06/17 06:07:06;;;;;;;4.70;2.35;;;15.60;99.90;;;;;;5091030;27;20261;-69
2022/06/17 06:09:32;;;;;;;5.43;2.58;;;15.60;99.90;;;;;;5089342;27;20046;-68
2022/06/17 06:11:57;;;;;;;4.05;2.45;;;15.70;99.90;;;;;;5104485;27;20097;-68
2022/06/17 06:14:23;;;;;;;3.75;2.17;;;15.70;99.90;;;;;;5089970;28;20030;-68
2022/06/17 06:16:48;;;;;;;4.68;2.60;;;15.70;99.90;;;;;;5089701;28;20083;-68
2022/06/17 06:19:14;;;;;;;3.25;2.17;;;15.70;99.90;;;;;;5087373;28;20040;-68
2022/06/17 06:21:39;;;;;;;5.63;2.28;;;15.80;99.90;;;;;;5088516;27;20130;-69
2022/06/17 06:24:05;;;;;;;3.70;2.17;;;15.80;99.90;;;;;;5085483;27;20043;-69
2022/06/17 06:26:31;;;;;;;4.47;2.40;;;15.80;99.90;;;;;;5086793;28;20051;-68
2022/06/17 06:28:56;;;;;;;4.10;2.45;;;15.90;99.90;;;;;;5089371;28;20043;-68
2022/06/17 06:31:30;;;;;;;4.60;2.80;;;15.90;99.90;;;;;;5087308;27;20054;-68
2022/06/17 06:33:56;;;;;;;5.07;2.60;;;15.90;99.90;;;;;;5097864;27;20066;-69
2022/06/17 06:36:21;;;;;;;4.53;2.10;;;16.00;99.90;;;;;;5090041;27;20066;-68
2022/06/17 06:38:48;;;;;;;4.03;2.33;;;16.00;99.90;;;;;;5093206;27;20035;-69
2022/06/17 06:41:14;;;;;;;3.70;2.33;;;16.10;99.90;;;;;;5084430;28;20589;-68
2022/06/17 06:43:40;;;;;;;4.95;2.97;;;16.20;99.90;;;;;;5087428;27;20401;-68
2022/06/17 06:46:10;;;;;;;4.88;2.92;;;16.20;99.90;;;;;;5078896;28;20034;-69
2022/06/17 06:48:36;;;;;;;6.55;2.70;;;16.30;99.90;;;;;;5089119;28;20119;-68
2022/06/17 06:51:02;;;;;;;5.90;3.05;;;16.40;99.90;;;;;;5091388;27;20493;-69
2022/06/17 06:53:28;;;;;;;3.85;2.20;;;16.40;99.90;;;;;;5091347;28;20036;-69
2022/06/17 06:55:53;;;;;;;3.42;1.98;;;16.50;99.90;;;;;;5090575;28;20100;-69
2022/06/17 06:58:22;;;;;;;5.40;2.60;;;16.50;99.90;;;;;;5097701;27;20040;-68
2022/06/17 07:00:50;;;;;;;3.35;2.00;;;16.70;99.90;;;;;;5091069;27;20039;-69
2022/06/17 07:03:20;;;;;;;4.72;2.80;;;16.80;99.90;;;;;;5078723;28;20504;-69
2022/06/17 07:06:05;;;;;;;5.82;2.85;;;16.90;99.90;;;;;;5085377;27;20340;-68
2022/06/17 07:08:34;;;;;;;7.57;2.70;;;17.00;99.90;;;;;;5105115;27;20048;-69
2022/06/17 07:11:00;;;;;;;4.53;2.15;;;17.10;99.90;;;;;;5070988;27;20533;-69
2022/06/17 07:13:31;;;;;;;7.15;2.58;;;17.20;99.90;;;;;;5087382;28;20130;-69
2022/06/17 07:15:57;;;;;;;4.05;2.47;;;17.30;99.90;;;;;;5086709;27;20114;-69
2022/06/17 07:18:31;;;;;;;4.63;2.70;;;17.40;99.90;;;;;;5086459;28;20051;-68
2022/06/17 07:21:04;;;;;;;4.00;2.20;;;17.50;99.90;;;;;;5099435;27;20040;-68
2022/06/17 07:23:35;;;;;;;4.50;2.50;;;17.70;99.90;;;;;;5076828;27;20111;-68
2022/06/17 07:26:07;;;;;;;4.18;2.08;;;17.70;99.90;;;;;;5069429;28;20032;-68
2022/06/17 07:28:32;;;;;;;3.70;1.90;;;17.80;99.90;;;;;;5070006;28;20168;-69
2022/06/17 07:30:59;;;;;;;4.00;1.95;;;17.90;99.90;;;;;;5069611;28;20789;-69
2022/06/17 07:33:27;;;;;;;5.32;2.50;;;17.90;99.90;;;;;;5076277;27;20055;-68
2022/06/17 07:35:57;;;;;;;4.13;2.20;;;17.90;99.90;;;;;;5103176;27;20047;-68
2022/06/17 07:41:13;;;;;;;4.05;2.03;;;18.00;99.90;;;;;;5070484;28;20079;-69
2022/06/17 07:43:39;;;;;;;4.45;1.98;;;18.00;99.90;;;;;;5073162;28;21511;-69
2022/06/17 07:46:06;;;;;;;3.47;2.15;;;18.00;99.90;;;;;;5085332;27;20035;-69
2022/06/17 07:48:32;;;;;;;3.97;1.98;;;18.10;99.90;;;;;;5085147;28;20400;-69
2022/06/17 07:50:58;;;;;;;4.10;2.53;;;18.10;99.90;;;;;;5087526;28;20636;-69
2022/06/17 07:53:29;;;;;;;4.15;2.20;;;18.30;99.90;;;;;;5090039;27;20036;-69
2022/06/17 07:55:58;;;;;;;3.13;1.88;;;18.40;99.80;;;;;;5072802;28;20393;-69
2022/06/17 07:58:24;;;;;;;3.60;2.42;;;18.50;99.70;;;;;;5087603;28;20555;-69
2022/06/17 08:00:49;;;;;;;4.78;2.30;;;18.70;99.50;;;;;;5102715;27;20047;-69
2022/06/17 08:03:17;;;;;;;3.90;2.00;;;18.80;99.30;;;;;;5101996;28;20047;-69
2022/06/17 08:05:46;;;;;;;2.83;1.90;;;19.00;98.50;;;;;;5096338;28;20036;-70
2022/06/17 08:08:13;;;;;;;4.22;2.15;;;19.10;97.80;;;;;;5091931;28;20052;-69
2022/06/17 08:10:39;;;;;;;3.78;2.00;;;19.20;97.40;;;;;;5089435;28;20084;-69
2022/06/17 08:13:07;;;;;;;3.08;1.55;;;19.20;97.10;;;;;;5092498;28;20503;-69
2022/06/17 08:15:34;;;;;;;2.72;1.63;;;19.20;97.00;;;;;;5089740;28;20039;-70
2022/06/17 08:18:00;;;;;;;4.28;1.80;;;19.20;96.90;;;;;;5073848;28;20060;-69
2022/06/17 08:20:31;;;;;;;2.83;1.50;;;19.30;96.90;;;;;;5091316;28;20040;-69
2022/06/17 08:22:57;;;;;;;3.15;1.80;;;19.20;96.70;;;;;;5105794;28;20040;-69
2022/06/17 08:25:23;;;;;;;3.88;2.03;;;19.30;96.80;;;;;;5097435;28;20050;-69
2022/06/17 08:27:52;;;;;;;2.78;1.73;;;19.30;96.70;;;;;;5103174;28;20037;-69
2022/06/17 08:30:20;;;;;;;3.83;1.88;;;19.40;96.60;;;;;;5089688;28;20131;-69
2022/06/17 08:32:47;;;;;;;3.25;1.98;;;19.50;96.20;;;;;;5087233;28;20043;-69
2022/06/17 08:35:14;;;;;;;2.88;1.83;;;19.60;96.20;;;;;;5103284;28;20035;-69
2022/06/17 08:37:41;;;;;;;3.60;1.63;;;19.70;96.20;;;;;;5086356;28;20050;-69
2022/06/17 08:40:48;;;;;;;4.40;1.75;;;19.70;95.80;;;;;;5097740;28;20167;-70
2022/06/17 08:43:42;;;;;;;4.05;2.20;;;19.80;95.00;;;;;;5092411;28;20039;-69
2022/06/17 08:46:29;;;;;;;3.63;2.03;;;20.00;94.70;;;;;;5105770;28;20517;-69
2022/06/17 08:49:19;;;;;;;4.47;1.92;;;20.10;95.00;;;;;;5105853;28;21436;-63
2022/06/17 08:52:11;;;;;;;4.40;1.92;;;20.30;94.40;;;;;;5097320;28;20040;-69
2022/06/17 08:54:53;;;;;;;5.05;2.13;;;20.40;94.70;;;;;;5094509;27;20687;-69
2022/06/17 08:57:57;;;;;;;4.57;2.17;;;20.50;94.50;;;;;;5085128;28;20109;-71
2022/06/17 09:00:42;;;;;;;5.53;2.58;;;20.50;94.10;;;;;;5100938;27;20040;-66
2022/06/17 09:03:18;;;;;;;3.30;1.98;;;20.40;93.70;;;;;;5109879;27;20053;-74
2022/06/17 09:06:03;;;;;;;3.15;2.08;;;20.40;94.80;;;;;;5100173;27;20044;-70
2022/06/17 09:08:41;;;;;;;5.13;2.53;;;20.30;95.00;;;;;;5084164;27;20514;-70
2022/06/17 09:11:19;;;;;;;6.00;2.38;;;20.30;95.10;;;;;;5096019;27;20126;-70
2022/06/17 09:13:53;;;;;;;5.85;2.95;;;20.20;94.70;;;;;;5098268;27;20096;-70
2022/06/17 09:16:25;;;;;;;5.50;2.53;;;20.20;94.70;;;;;;5104885;27;20111;-70
2022/06/17 09:18:59;;;;;;;3.42;2.35;;;20.20;95.00;;;;;;5073482;27;20588;-70
2022/06/17 09:21:48;;;;;;;4.32;2.50;;;20.20;95.00;;;;;;5088980;28;20031;-70
2022/06/17 09:24:20;;;;;;;5.43;2.70;;;20.20;94.40;;;;;;5080498;28;20056;-70
2022/06/17 09:26:52;;;;;;;5.18;2.20;;;20.20;95.20;;;;;;5092973;27;20055;-71
2022/06/17 09:29:36;;;;;;;3.97;2.28;;;20.30;95.20;;;;;;5101303;27;20044;-71
2022/06/17 09:32:10;;;;;;;5.18;2.13;;;20.30;95.10;;;;;;5091217;28;20032;-71
2022/06/17 09:35:08;;;;;;;4.97;1.97;;;20.40;95.50;;;;;;5088996;28;20040;-70
2022/06/17 09:38:05;;;;;;;3.50;1.90;;;20.40;95.00;;;;;;5054311;28;20051;-71
2022/06/17 09:40:34;;;;;;;4.60;1.50;;;20.50;93.80;;;;;;5105683;27;20056;-71
2022/06/17 09:43:30;;;;;;;3.47;1.65;;;20.50;94.80;;;;;;5106529;27;20054;-70
2022/06/17 09:46:03;;;;;;;2.53;1.48;;;20.60;93.30;;;;;;5080514;28;20044;-70
2022/06/17 09:48:34;;;;;;;2.90;1.73;;;20.60;94.10;;;;;;5087099;27;20067;-70
2022/06/17 09:51:11;;;;;;;3.67;1.67;;;20.60;94.00;;;;;;5102010;27;20031;-70
2022/06/17 09:53:43;;;;;;;3.40;1.52;;;20.70;92.50;;;;;;5084331;27;20067;-71
2022/06/17 09:56:09;;;;;;;5.07;1.60;;;20.70;93.50;;;;;;5055386;28;21538;-70
2022/06/17 09:58:45;;;;;;;4.40;1.30;;;20.80;93.40;;;;;;5050163;28;20043;-70
2022/06/17 10:01:13;;;;;;;2.80;1.70;;;20.80;92.50;;;;;;5045945;28;20062;-71
2022/06/17 10:03:40;;;;;;;4.80;1.58;;;20.90;92.90;;;;;;5060732;28;20490;-71
2022/06/17 10:06:34;;;;;;;2.90;1.30;;;20.90;92.80;;;;;;5063615;28;20068;-70
2022/06/17 10:09:16;;;;;;;2.78;1.55;;;21.00;91.50;;;;;;5045845;28;20164;-70
2022/06/17 10:12:20;;;;;;;2.72;1.58;;;21.00;92.00;;;;;;5065453;28;20032;-70
2022/06/17 10:14:53;;;;;;;2.75;1.50;;;21.00;89.20;;;;;;5049429;28;20390;-69
2022/06/17 10:20:55;;;;;;;2.10;1.20;;;21.10;90.30;;;;;;5054233;28;20177;-70
2022/06/17 10:23:39;;;;;;;1.75;1.20;;;21.20;90.70;;;;;;5038373;28;20631;-70
2022/06/17 10:26:16;;;;;;;3.15;1.55;;;21.20;90.30;;;;;;5055590;28;20056;-70
2022/06/17 10:28:51;;;;;;;3.95;1.40;;;21.30;91.20;;;;;;5051425;28;20048;-70
2022/06/17 10:31:38;;;;;;;2.67;1.63;;;21.30;91.20;;;;;;5060744;28;20405;-70
2022/06/17 10:34:31;;;;;;;2.78;1.63;;;21.40;91.00;;;;;;5054946;28;20604;-70
2022/06/17 10:37:03;;;;;;;4.15;1.70;;;21.40;90.80;;;;;;5061231;28;20471;-70
2022/06/17 10:39:32;;;;;;;2.90;1.35;;;21.40;90.70;;;;;;5069853;28;20032;-70
2022/06/17 10:41:59;;;;;;;2.80;1.48;;;21.40;90.80;;;;;;5074759;28;20475;-70
2022/06/17 10:44:28;;;;;;;3.13;1.60;;;21.30;91.30;;;;;;5063621;28;20067;-70
2022/06/17 10:47:09;;;;;;;2.60;1.40;;;21.30;91.40;;;;;;5062972;28;20055;-70
2022/06/17 10:49:42;;;;;;;3.47;1.65;;;21.30;91.40;;;;;;5049370;28;20041;-75
2022/06/17 10:52:20;;;;;;;3.65;1.98;;;21.30;91.40;;;;;;5045985;28;20300;-70
2022/06/17 10:54:49;;;;;;;2.75;1.52;;;21.30;91.20;;;;;;5070754;28;20439;-70
2022/06/17 10:57:30;;;;;;;3.85;1.88;;;21.40;91.70;;;;;;5060384;28;20082;-70
2022/06/17 10:59:56;;;;;;;2.75;1.40;;;21.40;91.00;;;;;;5058745;28;20037;-70
2022/06/17 11:02:25;;;;;;;3.20;1.58;;;21.50;91.70;;;;;;5060891;28;20040;-69
2022/06/17 11:05:03;;;;;;;2.75;1.83;;;21.60;91.50;;;;;;5062195;28;20044;-70
2022/06/17 11:07:47;;;;;;;2.80;1.60;;;21.70;90.80;;;;;;5051304;28;20036;-70
2022/06/17 11:10:13;;;;;;;4.32;1.60;;;21.70;89.50;;;;;;5058193;28;20044;-70
2022/06/17 11:12:54;;;;;;;3.20;1.55;;;21.80;90.70;;;;;;5046905;28;20043;-70
2022/06/17 11:15:29;;;;;;;2.33;1.33;;;21.80;90.50;;;;;;5061551;28;20032;-70
2022/06/17 11:18:13;;;;;;;1.60;1.10;;;21.90;90.20;;;;;;5061161;28;20075;-70
2022/06/17 11:20:39;;;;;;;2.97;1.52;;;21.90;90.20;;;;;;5050843;28;20075;-70
2022/06/17 11:23:28;;;;;;;3.00;1.38;;;22.00;90.70;;;;;;5039647;28;20569;-70
2022/06/17 11:26:13;;;;;;;1.98;1.30;;;22.00;89.20;;;;;;5062167;28;21761;-70
2022/06/17 11:29:00;;;;;;;2.95;1.50;;;22.10;85.90;;;;;;5042377;28;20045;-70
2022/06/17 11:31:26;;;;;;;2.25;1.52;;;22.20;83.80;;;;;;5049001;28;20043;-70
2022/06/17 11:33:59;;;;;;;1.98;1.27;;;22.20;88.10;;;;;;5040747;28;20029;-70
2022/06/17 11:36:24;;;;;;;2.30;1.30;;;22.20;86.90;;;;;;5048692;28;20033;-70
2022/06/17 11:38:51;;;;;;;2.45;1.15;;;22.20;87.80;;;;;;5058958;28;20138;-70
2022/06/17 11:41:30;;;;;;;2.75;1.58;;;22.20;87.90;;;;;;5061863;28;20089;-70
2022/06/17 11:44:08;;;;;;;3.22;1.38;;;22.20;87.80;;;;;;5055034;28;20037;-70
2022/06/17 11:46:35;;;;;;;3.53;1.30;;;22.20;89.00;;;;;;5034770;28;20037;-70
2022/06/17 11:49:09;;;;;;;1.80;1.08;;;22.20;89.60;;;;;;5050818;28;20040;-70
2022/06/17 11:51:39;;;;;;;2.25;1.30;;;22.20;88.80;;;;;;5054315;28;20043;-70
2022/06/17 11:54:09;;;;;;;1.90;1.13;;;22.20;89.30;;;;;;5049382;28;20032;-70
2022/06/17 11:56:37;;;;;;;2.97;1.30;;;22.30;89.50;;;;;;5060296;28;20399;-70
2022/06/17 11:59:07;;;;;;;1.83;1.30;;;22.30;89.50;;;;;;5057235;28;20194;-70
2022/06/17 12:01:34;;;;;;;2.78;1.30;;;22.40;88.50;;;;;;5059377;28;20141;-70
2022/06/17 12:04:00;;;;;;;2.75;1.63;;;22.40;88.70;;;;;;5037172;28;20038;-70
2022/06/17 12:06:45;;;;;;;2.38;1.35;;;22.40;88.80;;;;;;5057070;28;20041;-70
2022/06/17 12:09:22;;;;;;;;;;;22.40;83.90;;;;;;5045853;28;20597;-70
2022/06/17 12:11:54;;;;;;;2.35;1.30;;;22.50;80.20;;;;;;5063669;28;19927;-72
2022/06/17 12:14:46;;;;;;;2.92;1.50;;;22.50;86.50;;;;;;5078538;28;20119;-70
2022/06/17 12:17:14;;;;;;;3.85;1.80;;;22.60;83.10;;;;;;5061556;28;20060;-70
2022/06/17 12:19:40;;;;;;;2.22;1.20;;;22.60;85.10;;;;;;5051572;28;20090;-71
2022/06/17 12:22:16;;;;;;;2.03;1.30;;;22.70;85.00;;;;;;5046854;28;20486;-70
2022/06/17 12:24:47;;;;;;;2.22;1.30;;;22.90;84.20;;;;;;5046796;28;20612;-70
2022/06/17 12:27:30;;;;;;;2.08;0.98;;;23.00;83.60;;;;;;5056927;28;20033;-71
2022/06/17 12:30:05;;;;;;;1.95;1.30;;;23.10;80.10;;;;;;5066703;28;20044;-70
2022/06/17 12:32:51;;;;;;;2.67;1.30;;;23.20;80.40;;;;;;5068075;28;20505;-71
2022/06/17 12:35:37;;;;;;;4.10;1.77;;;23.30;77.90;;;;;;5070557;28;20609;-70
2022/06/17 12:38:15;;;;;;;2.65;1.58;;;23.30;81.20;;;;;;5059960;28;20047;-71
2022/06/17 12:40:54;;;;;;;1.90;1.20;;;23.30;79.50;;;;;;5053049;28;20048;-70
2022/06/17 12:43:45;;;;;;;2.28;1.30;;;23.50;78.70;;;;;;5070327;28;20109;-70
2022/06/17 12:46:32;;;;;;;2.05;1.30;;;23.50;72.50;;;;;;5068003;28;20113;-70
2022/06/17 12:55:22;;;;;;;2.85;1.40;;;23.40;75.00;;;;;;5050032;28;20049;-70
2022/06/17 12:58:15;;;;;;;2.67;1.45;;;23.50;76.10;;;;;;5052964;28;20033;-70
2022/06/17 13:00:46;;;;;;;3.47;1.50;;;23.50;71.50;;;;;;5048513;28;20044;-71
2022/06/17 13:03:22;;;;;;;2.70;1.40;;;23.50;77.40;;;;;;5049858;28;20052;-70
2022/06/17 13:05:49;;;;;;;2.92;1.45;;;23.60;77.10;;;;;;5049746;28;20057;-71
2022/06/17 13:08:30;;;;;;;2.90;1.63;;;23.70;76.60;;;;;;5053998;28;20082;-70
2022/06/17 13:11:50;;;;;;;2.80;1.42;;;23.80;72.30;;;;;;5069477;28;20091;-70
2022/06/17 13:14:30;;;;;;;2.15;1.40;;;23.80;70.50;;;;;;5036490;28;20525;-70
2022/06/17 13:17:26;;;;;;;2.55;1.48;;;23.90;72.50;;;;;;5055510;28;20526;-70
2022/06/17 13:20:00;;;;;;;2.47;1.10;;;23.90;68.80;;;;;;5057145;28;20131;-71
2022/06/17 13:22:39;;;;;;;3.00;1.50;;;24.00;71.10;;;;;;5069624;28;20051;-70
2022/06/17 13:25:36;;;;;;;4.65;1.40;;;24.10;73.30;;;;;;5061865;28;20295;-71
2022/06/17 13:28:08;;;;;;;1.83;1.30;;;24.20;68.50;;;;;;5042205;28;20099;-71
2022/06/17 13:30:38;;;;;;;2.92;1.60;;;24.30;70.70;;;;;;5055242;28;20033;-71
2022/06/17 13:33:27;;;;;;;3.78;1.50;;;24.30;71.00;;;;;;5056288;28;20048;-71
2022/06/17 13:36:01;;;;;;;3.65;1.58;;;24.40;67.00;;;;;;5072544;28;20072;-71